TimeMST,TemperatureF,Dew PointF,Humidity,Sea Level PressureIn,VisibilityMPH,Wind Direction,Wind SpeedMPH,Gust SpeedMPH,PrecipitationIn,Events,Conditions,WindDirDegrees,DateUTC
12:57 AM,77.0,34.0,21,29.74,10.0,SSE,8.1,-,N/A,,Clear,150,2013-05-17 07:57:00
1:57 AM,75.9,34.0,22,29.74,10.0,SSE,8.1,-,N/A,,Clear,160,2013-05-17 08:57:00
2:57 AM,73.9,34.0,23,29.75,10.0,Calm,Calm,-,N/A,,Partly Cloudy,0,2013-05-17 09:57:00
3:57 AM,73.0,36.0,26,29.75,10.0,South,3.5,-,N/A,,Partly Cloudy,180,2013-05-17 10:57:00
4:57 AM,70.0,39.9,33,29.76,10.0,South,3.5,-,N/A,,Scattered Clouds,180,2013-05-17 11:57:00
5:57 AM,72.0,39.0,30,29.77,10.0,SE,4.6,-,N/A,,Scattered Clouds,140,2013-05-17 12:57:00
6:57 AM,72.0,44.1,37,29.80,10.0,South,4.6,-,N/A,,Mostly Cloudy,170,2013-05-17 13:57:00
7:57 AM,78.1,36.0,22,29.82,10.0,West,5.8,-,N/A,,Mostly Cloudy,260,2013-05-17 14:57:00
8:57 AM,79.0,37.0,22,29.82,10.0,SSW,5.8,-,N/A,,Mostly Cloudy,200,2013-05-17 15:57:00
9:57 AM,84.0,41.0,22,29.83,10.0,WSW,6.9,-,N/A,,Mostly Cloudy,250,2013-05-17 16:57:00
10:57 AM,86.0,39.0,19,29.83,10.0,NW,3.5,-,N/A,,Mostly Cloudy,320,2013-05-17 17:57:00
11:57 AM,87.1,41.0,20,29.82,10.0,West,6.9,-,N/A,,Overcast,260,2013-05-17 18:57:00
12:57 PM,88.0,39.0,18,29.81,10.0,West,9.2,-,N/A,,Mostly Cloudy,280,2013-05-17 19:57:00
1:57 PM,91.9,32.0,12,29.81,10.0,Variable,6.9,19.6,N/A,,Mostly Cloudy,0,2013-05-17 20:57:00
2:57 PM,91.0,34.0,13,29.79,10.0,West,6.9,-,N/A,,Mostly Cloudy,260,2013-05-17 21:57:00
3:57 PM,91.0,35.1,14,29.77,10.0,West,6.9,-,N/A,,Mostly Cloudy,280,2013-05-17 22:57:00
4:57 PM,91.9,35.1,13,29.75,10.0,West,6.9,-,N/A,,Mostly Cloudy,270,2013-05-17 23:57:00
5:57 PM,91.0,34.0,13,29.75,10.0,WSW,5.8,-,N/A,,Mostly Cloudy,240,2013-05-18 00:57:00
6:57 PM,90.0,35.1,14,29.75,10.0,WSW,5.8,-,N/A,,Scattered Clouds,250,2013-05-18 01:57:00
7:57 PM,84.0,39.0,20,29.77,10.0,NW,15.0,-,N/A,,Partly Cloudy,310,2013-05-18 02:57:00
8:57 PM,80.1,42.1,26,29.79,10.0,WNW,19.6,25.3,N/A,,Partly Cloudy,300,2013-05-18 03:57:00
9:57 PM,77.0,44.1,31,29.81,10.0,WNW,13.8,-,N/A,,Clear,290,2013-05-18 04:57:00
10:57 PM,75.0,43.0,32,29.82,10.0,West,10.4,-,N/A,,Clear,280,2013-05-18 05:57:00
11:57 PM,72.0,44.1,37,29.83,10.0,West,9.2,-,N/A,,Clear,260,2013-05-18 06:57:00